map of AXN home
AXN - Airport
Location
City:  Alexandria, Minnesota, United States
Name:Chandler Field
ICAO:KAXN
IATA:AXN
FAA LID:AXN

Details
Type:Airport (Airfield)
Use:Public/Civil
Latitude:4551'59"N (45.866306)
Longitude:9523'41"W (-95.394666)
Datum:WGS 1984
Elevation:1425 ft (434 m)
Variation:1.86E (WMM2015v2 magnetic declination)
-0.05 annual change
Runways:2
Longest:5099 × 100 ft (1554 × 30.5 m), paved

Time
Time Zone:UTC-6 (DST-5)
Local Time:

Weather
METAR:KAXN 041353Z AUTO 30016KT 8SM OVC027 M17/M21 A2983 RMK AO2 SLP131 T11671206
TAF:KAXN 041139Z 0412/0512 31013G20KT P6SM SCT008 OVC025
FM041530 31017G23KT P6SM SCT025
FM042300 32011KT P6SM SCT015
FM050800 35006KT P6SM BKN020 OVC070

Related Locations
Nearby:
Farthest:YWKS: 10688 mi / 17200 km
Wilkins Runway (Casey), Upper Peterson Glacier, AQ

Find:

   beyond  
but within

Other Information
Maps:
NOTAMs:
Links:
Sources:

  
  • flag of United States
  • flag of Minnesota
  

Sectional Chart

Flight Planning
at skyvector.com

Satellite Image

Google Maps Satellite view

 

Copyright © 2004-2019 Karl L. Swartz. All rights reserved.
The Great Circle Mapper name and logo are trademarks of the Great Circle Mapper.
All other trademarks mentioned herein belong to their respective owners.
Please see credits for attibutions and further copyright information.

  Follow gcmap on Facebook Follow gcmap on Twitter GCmap on LinkedIn

hCard Microformat

Geo Microformat